createdAt,value
2017-09-29T00:00:27.792Z,6.72
2017-09-29T00:03:01.626Z,6.82
2017-09-29T00:05:36.333Z,5.43
2017-09-29T00:08:10.131Z,8.73
2017-09-29T00:10:43.794Z,7.72
2017-09-29T00:13:17.767Z,7.43
2017-09-29T00:15:51.692Z,6.32
2017-09-29T00:18:25.552Z,7.70
2017-09-29T00:20:59.333Z,7.05
2017-09-29T00:23:33.345Z,5.22
2017-09-29T00:26:07.151Z,5.32
2017-09-29T00:28:40.818Z,7.12
2017-09-29T00:31:14.614Z,7.87
2017-09-29T00:33:48.420Z,5.07
2017-09-29T00:36:23.128Z,6.50
2017-09-29T00:38:57.057Z,4.97
2017-09-29T00:41:31.651Z,6.00
2017-09-29T00:44:05.522Z,9.85
2017-09-29T00:46:39.300Z,7.03
2017-09-29T00:49:13.168Z,6.90
2017-09-29T00:51:46.988Z,8.48
2017-09-29T00:54:20.834Z,6.57
2017-09-29T00:56:55.523Z,6.90
2017-09-29T00:59:29.358Z,6.72
2017-09-29T01:02:03.197Z,7.32
2017-09-29T01:04:36.908Z,5.30
2017-09-29T01:07:11.422Z,6.28
2017-09-29T01:09:45.387Z,7.50
2017-09-29T01:12:19.277Z,7.05
2017-09-29T01:14:53.101Z,7.22
2017-09-29T01:17:26.840Z,7.80
2017-09-29T01:20:01.427Z,6.82
2017-09-29T01:22:35.988Z,7.28
2017-09-29T01:25:09.857Z,6.35
2017-09-29T01:27:44.561Z,7.20
2017-09-29T01:30:18.399Z,6.60
2017-09-29T01:32:52.167Z,6.82
2017-09-29T01:35:26.055Z,7.32
2017-09-29T01:37:59.810Z,6.07
2017-09-29T01:40:33.642Z,7.07
2017-09-29T01:43:07.491Z,6.37
2017-09-29T01:45:41.404Z,7.32
2017-09-29T01:48:15.259Z,8.15
2017-09-29T01:50:49.955Z,7.15
2017-09-29T01:53:24.780Z,6.87
2017-09-29T01:55:58.854Z,6.37
2017-09-29T01:58:32.667Z,6.12
2017-09-29T02:01:06.579Z,6.40
2017-09-29T02:03:41.259Z,5.95
2017-09-29T02:06:15.122Z,7.12
2017-09-29T02:08:49.008Z,6.10
2017-09-29T02:11:22.840Z,7.00
2017-09-29T02:13:56.830Z,6.30
2017-09-29T02:16:30.912Z,5.68
2017-09-29T02:19:05.108Z,7.15
2017-09-29T02:21:40.240Z,7.25
2017-09-29T02:24:16.101Z,5.22
2017-09-29T02:26:50.873Z,5.65
2017-09-29T02:29:26.399Z,7.07
2017-09-29T02:32:00.551Z,6.32
2017-09-29T02:34:35.576Z,5.72
2017-09-29T02:37:11.984Z,4.40
2017-09-29T02:39:46.164Z,8.90
2017-09-29T02:42:21.414Z,5.20
2017-09-29T02:44:55.511Z,7.50
2017-09-29T02:47:31.340Z,7.28
2017-09-29T02:50:05.391Z,6.20
2017-09-29T02:52:40.364Z,6.45
2017-09-29T02:55:14.759Z,5.60
2017-09-29T02:57:52.740Z,6.35
2017-09-29T03:00:29.924Z,6.75
2017-09-29T03:03:05.278Z,6.70
2017-09-29T03:05:43.585Z,7.60
2017-09-29T03:08:17.608Z,5.70
2017-09-29T03:10:51.720Z,5.40
2017-09-29T03:13:25.921Z,5.22
2017-09-29T03:16:00.690Z,5.50
2017-09-29T03:18:34.778Z,6.07
2017-09-29T03:21:08.683Z,6.15
2017-09-29T03:23:42.666Z,6.00
2017-09-29T03:26:17.696Z,7.70
2017-09-29T03:28:52.629Z,6.72
2017-09-29T03:31:26.742Z,5.65
2017-09-29T03:34:01.072Z,9.68
2017-09-29T03:36:35.769Z,6.93
2017-09-29T03:39:10.531Z,10.02
2017-09-29T03:41:44.762Z,5.97
2017-09-29T03:44:19.172Z,5.57
2017-09-29T03:46:53.360Z,6.12
2017-09-29T03:49:27.692Z,7.78
2017-09-29T03:52:02.247Z,5.68
2017-09-29T03:54:38.403Z,6.97
2017-09-29T03:57:16.697Z,8.50
2017-09-29T03:59:50.751Z,6.65
2017-09-29T04:02:24.829Z,6.85
2017-09-29T04:04:58.896Z,7.95
2017-09-29T04:07:34.420Z,7.65
2017-09-29T04:10:09.107Z,7.03
2017-09-29T04:12:44.137Z,7.75
2017-09-29T04:15:18.240Z,8.85
2017-09-29T04:17:52.197Z,9.07
2017-09-29T04:20:26.877Z,9.27
2017-09-29T04:23:01.102Z,12.13
2017-09-29T04:25:35.003Z,9.02
2017-09-29T04:28:08.765Z,8.60
2017-09-29T04:30:43.402Z,8.50
2017-09-29T04:33:18.380Z,8.07
2017-09-29T04:35:53.079Z,6.87
2017-09-29T04:38:28.012Z,7.37
2017-09-29T04:41:02.303Z,6.47
2017-09-29T04:43:36.056Z,6.32
2017-09-29T04:46:10.653Z,6.60
2017-09-29T04:48:44.718Z,6.75
2017-09-29T04:51:18.701Z,5.60
2017-09-29T04:53:53.178Z,5.05
2017-09-29T04:56:27.339Z,5.28
2017-09-29T04:59:01.144Z,4.90
2017-09-29T05:01:35.059Z,5.28
2017-09-29T05:04:09.211Z,5.40
2017-09-29T05:06:43.918Z,5.87
2017-09-29T05:09:17.755Z,5.53
2017-09-29T05:11:51.736Z,7.53
2017-09-29T05:14:25.513Z,7.53
2017-09-29T05:16:59.337Z,5.82
2017-09-29T05:19:33.375Z,6.62
2017-09-29T05:22:07.516Z,6.97
2017-09-29T05:24:41.420Z,7.15
2017-09-29T05:27:16.493Z,10.05
2017-09-29T05:29:50.486Z,8.45
2017-09-29T05:32:24.492Z,8.05
2017-09-29T05:34:58.416Z,5.87
2017-09-29T05:37:32.217Z,6.25
2017-09-29T05:40:06.131Z,7.80
2017-09-29T05:42:40.234Z,6.75
2017-09-29T05:45:14.103Z,7.80
2017-09-29T05:47:48.309Z,8.00
2017-09-29T05:50:22.369Z,8.77
2017-09-29T05:52:56.156Z,8.02
2017-09-29T05:55:30.227Z,8.10
2017-09-29T05:58:04.009Z,8.07
2017-09-29T06:00:38.682Z,8.45
2017-09-29T06:03:12.490Z,8.38
2017-09-29T06:05:46.228Z,8.48
2017-09-29T06:08:20.234Z,8.70
2017-09-29T06:10:54.018Z,8.82
2017-09-29T06:13:27.712Z,8.27
2017-09-29T06:16:01.957Z,9.23
2017-09-29T06:18:37.032Z,7.05
2017-09-29T06:21:10.917Z,8.07
2017-09-29T06:23:46.023Z,7.80
2017-09-29T06:26:19.945Z,10.18
2017-09-29T06:28:53.847Z,9.38
2017-09-29T06:31:27.776Z,9.15
2017-09-29T06:34:01.472Z,9.18
2017-09-29T06:36:36.172Z,10.35
2017-09-29T06:39:10.897Z,8.90
2017-09-29T06:41:44.827Z,8.95
2017-09-29T06:44:18.877Z,9.38
2017-09-29T06:46:52.868Z,8.75
2017-09-29T06:49:27.365Z,10.38
2017-09-29T06:52:02.009Z,9.18
2017-09-29T06:54:35.991Z,9.23
2017-09-29T06:57:09.937Z,9.30
2017-09-29T06:59:43.790Z,9.20
2017-09-29T07:02:18.427Z,9.80
2017-09-29T07:04:52.440Z,7.87
2017-09-29T07:07:26.373Z,9.25
2017-09-29T07:10:00.232Z,8.85
2017-09-29T07:12:34.013Z,7.85
2017-09-29T07:15:07.788Z,8.15
2017-09-29T07:17:41.753Z,8.45
2017-09-29T07:20:16.403Z,8.38
2017-09-29T07:22:50.248Z,7.18
2017-09-29T07:25:24.625Z,8.93
2017-09-29T07:28:00.055Z,6.50
2017-09-29T07:30:34.581Z,9.57
2017-09-29T07:33:08.332Z,7.75
2017-09-29T07:35:42.260Z,9.15
2017-09-29T07:38:15.972Z,8.68
2017-09-29T07:40:50.524Z,6.50
2017-09-29T07:43:24.305Z,6.35
2017-09-29T07:45:58.975Z,6.75
2017-09-29T07:48:32.662Z,7.43
2017-09-29T07:51:06.463Z,7.40
2017-09-29T07:53:40.239Z,8.25
2017-09-29T07:56:14.880Z,6.00
2017-09-29T07:58:48.713Z,6.62
2017-09-29T08:01:22.599Z,5.97
2017-09-29T08:03:57.154Z,6.25
2017-09-29T08:06:31.656Z,5.55
2017-09-29T08:09:05.550Z,8.45
2017-09-29T08:11:39.218Z,5.75
2017-09-29T08:14:13.210Z,6.80
2017-09-29T08:16:47.077Z,7.28
2017-09-29T08:19:21.434Z,7.30
2017-09-29T08:21:55.371Z,6.93
2017-09-29T08:24:30.022Z,7.12
2017-09-29T08:27:03.772Z,7.18
2017-09-29T08:29:38.534Z,6.40
2017-09-29T08:32:12.356Z,7.95
2017-09-29T08:34:46.371Z,6.75
2017-09-29T08:37:20.053Z,8.25
2017-09-29T08:39:54.417Z,6.90
2017-09-29T08:42:28.162Z,7.37
2017-09-29T08:45:02.188Z,6.75
2017-09-29T08:47:36.941Z,7.95
2017-09-29T08:50:10.790Z,7.40
2017-09-29T08:52:45.424Z,7.57
2017-09-29T08:55:19.527Z,5.15
2017-09-29T08:57:54.130Z,9.02
2017-09-29T09:00:28.745Z,6.72
2017-09-29T09:03:02.818Z,5.12
2017-09-29T09:05:36.573Z,9.10
2017-09-29T09:08:10.487Z,6.78
2017-09-29T09:10:44.583Z,7.00
2017-09-29T09:13:18.564Z,6.05
2017-09-29T09:15:52.593Z,7.60
2017-09-29T09:18:26.439Z,6.22
2017-09-29T09:21:01.154Z,9.23
2017-09-29T09:23:35.001Z,5.55
2017-09-29T09:26:08.813Z,6.35
2017-09-29T09:28:42.552Z,5.93
2017-09-29T09:31:16.876Z,6.18
2017-09-29T09:33:51.596Z,5.75
2017-09-29T09:36:25.397Z,6.82
2017-09-29T09:38:59.311Z,6.75
2017-09-29T09:41:33.097Z,7.45
2017-09-29T09:44:07.521Z,7.07
2017-09-29T09:46:42.213Z,6.28
2017-09-29T09:49:16.053Z,6.15
2017-09-29T09:51:50.645Z,6.68
2017-09-29T09:54:24.980Z,7.45
2017-09-29T09:56:59.483Z,6.05
2017-09-29T09:59:33.597Z,7.85
2017-09-29T10:02:07.568Z,5.60
2017-09-29T10:04:41.604Z,7.60
2017-09-29T10:07:15.611Z,6.82
2017-09-29T10:09:49.663Z,10.18
2017-09-29T10:12:23.525Z,8.77
2017-09-29T10:14:57.375Z,8.18
2017-09-29T10:17:31.135Z,5.95
2017-09-29T10:20:05.658Z,9.95
2017-09-29T10:22:39.512Z,5.78
2017-09-29T10:25:13.222Z,6.87
2017-09-29T10:27:47.170Z,6.85
2017-09-29T10:30:21.876Z,6.70
2017-09-29T10:32:56.455Z,8.32
2017-09-29T10:35:30.548Z,6.57
2017-09-29T10:38:04.424Z,6.50
2017-09-29T10:40:38.240Z,6.62
2017-09-29T10:43:12.150Z,6.45
2017-09-29T10:45:46.186Z,7.22
2017-09-29T10:48:20.036Z,6.85
2017-09-29T10:50:55.966Z,6.22
2017-09-29T10:53:30.001Z,6.80
2017-09-29T10:56:05.095Z,7.95
2017-09-29T10:58:39.110Z,7.68
2017-09-29T11:01:13.208Z,5.82
2017-09-29T11:03:47.375Z,7.43
2017-09-29T11:06:21.179Z,6.60
2017-09-29T11:08:55.828Z,7.10
2017-09-29T11:11:30.490Z,6.55
2017-09-29T11:14:04.556Z,5.62
2017-09-29T11:16:39.279Z,6.72
2017-09-29T11:19:13.239Z,5.93
2017-09-29T11:21:47.261Z,6.03
2017-09-29T11:24:21.498Z,6.30
2017-09-29T11:26:56.216Z,6.65
2017-09-29T11:29:31.108Z,7.25
2017-09-29T11:32:05.160Z,8.95
2017-09-29T11:34:39.133Z,7.12
2017-09-29T11:37:12.796Z,6.50
2017-09-29T11:39:46.657Z,10.98
2017-09-29T11:42:20.569Z,8.52
2017-09-29T11:44:54.360Z,8.55
2017-09-29T11:47:29.366Z,8.20
2017-09-29T11:50:03.128Z,8.95
2017-09-29T11:52:37.803Z,10.13
2017-09-29T11:55:12.305Z,6.72
2017-09-29T11:57:47.262Z,7.93
2017-09-29T12:00:20.982Z,9.63
2017-09-29T12:02:54.695Z,8.90
2017-09-29T12:05:28.582Z,7.43
2017-09-29T12:08:02.423Z,9.55
2017-09-29T12:10:36.296Z,9.32
2017-09-29T12:13:10.180Z,11.65
2017-09-29T12:15:43.943Z,9.90
2017-09-29T12:18:17.745Z,7.93
2017-09-29T12:20:51.632Z,9.15
2017-09-29T12:23:25.288Z,9.50
2017-09-29T12:25:59.143Z,10.20
2017-09-29T12:28:33.006Z,10.95
2017-09-29T12:31:06.859Z,9.10
2017-09-29T12:33:40.736Z,11.65
2017-09-29T12:36:14.740Z,9.65
2017-09-29T12:38:48.518Z,8.25
2017-09-29T12:41:22.371Z,10.15
2017-09-29T12:43:56.990Z,8.15
2017-09-29T12:46:31.673Z,9.95
2017-09-29T12:49:05.589Z,7.90
2017-09-29T12:51:39.435Z,8.63
2017-09-29T12:54:13.253Z,8.05
2017-09-29T12:56:47.813Z,10.50
2017-09-29T12:59:23.311Z,8.60
2017-09-29T13:01:57.174Z,7.87
2017-09-29T13:04:31.049Z,7.20
2017-09-29T13:07:05.672Z,8.13
2017-09-29T13:09:39.564Z,9.27
2017-09-29T13:12:14.136Z,9.52
2017-09-29T13:14:48.275Z,8.73
2017-09-29T13:17:22.843Z,9.85
2017-09-29T13:19:56.694Z,9.90
2017-09-29T13:22:30.761Z,8.77
2017-09-29T13:25:04.488Z,7.45
2017-09-29T13:27:38.502Z,10.55
2017-09-29T13:30:12.204Z,8.27
2017-09-29T13:32:45.976Z,11.07
2017-09-29T13:35:20.013Z,8.48
2017-09-29T13:37:54.112Z,8.50
2017-09-29T13:40:28.051Z,8.63
2017-09-29T13:43:02.556Z,10.80
2017-09-29T13:45:36.683Z,9.40
2017-09-29T13:48:10.891Z,11.10
2017-09-29T13:50:44.815Z,8.35
2017-09-29T13:53:18.708Z,7.28
2017-09-29T13:55:55.594Z,8.00
2017-09-29T13:58:29.383Z,9.48
2017-09-29T14:01:03.944Z,7.80
2017-09-29T14:03:38.090Z,9.25
2017-09-29T14:06:11.956Z,9.82
2017-09-29T14:08:46.728Z,7.62
2017-09-29T14:11:20.849Z,9.75
2017-09-29T14:13:54.939Z,7.87
2017-09-29T14:16:28.701Z,10.50
2017-09-29T14:19:02.728Z,7.45
2017-09-29T14:21:37.305Z,8.52
2017-09-29T14:24:11.319Z,8.05
2017-09-29T14:26:45.922Z,9.68
2017-09-29T14:29:20.280Z,7.70
2017-09-29T14:31:54.406Z,8.30
2017-09-29T14:34:28.412Z,8.68
2017-09-29T14:37:02.747Z,10.50
2017-09-29T14:39:37.236Z,10.00
2017-09-29T14:42:12.227Z,10.00
2017-09-29T14:44:46.055Z,9.77
2017-09-29T14:47:20.881Z,9.80
2017-09-29T14:49:55.605Z,8.90
2017-09-29T14:52:30.631Z,7.70
2017-09-29T14:55:04.434Z,12.75
2017-09-29T14:57:38.637Z,7.87
2017-09-29T15:00:12.773Z,10.18
2017-09-29T15:02:46.882Z,8.18
2017-09-29T15:05:20.883Z,9.63
2017-09-29T15:07:55.213Z,9.00
2017-09-29T15:10:30.694Z,11.85
2017-09-29T15:13:05.104Z,7.72
2017-09-29T15:15:39.840Z,8.95
2017-09-29T15:18:14.473Z,9.05
2017-09-29T15:20:49.482Z,8.15
2017-09-29T15:23:23.784Z,8.68
2017-09-29T15:25:57.775Z,8.38
2017-09-29T15:28:31.584Z,8.93
2017-09-29T15:31:05.622Z,8.20
2017-09-29T15:33:39.550Z,11.15
2017-09-29T15:36:13.587Z,7.18
2017-09-29T15:38:47.671Z,8.25
2017-09-29T15:41:21.721Z,8.02
2017-09-29T15:43:55.883Z,10.23
2017-09-29T15:46:30.516Z,7.45
2017-09-29T15:49:04.967Z,8.10
2017-09-29T15:51:39.765Z,8.50
2017-09-29T15:54:14.722Z,8.38
2017-09-29T15:56:48.715Z,8.05
2017-09-29T15:59:23.352Z,8.60
2017-09-29T16:01:57.480Z,8.13
2017-09-29T16:04:31.303Z,8.35
2017-09-29T16:07:05.301Z,8.60
2017-09-29T16:09:39.204Z,9.45
2017-09-29T16:12:13.844Z,7.95
2017-09-29T16:14:47.966Z,10.40
2017-09-29T16:17:22.910Z,7.32
2017-09-29T16:19:57.487Z,9.23
2017-09-29T16:22:32.209Z,8.43
2017-09-29T16:25:06.832Z,11.55
2017-09-29T16:27:41.097Z,8.07
2017-09-29T16:30:15.201Z,9.18
2017-09-29T16:32:49.361Z,9.75
2017-09-29T16:35:23.455Z,14.68
2017-09-29T16:37:57.343Z,9.95
2017-09-29T16:40:31.978Z,10.40
2017-09-29T16:43:06.446Z,10.85
2017-09-29T16:45:40.369Z,9.00
2017-09-29T16:48:15.065Z,12.23
2017-09-29T16:50:50.195Z,9.30
2017-09-29T16:53:24.386Z,10.10
2017-09-29T16:55:58.561Z,9.30
2017-09-29T16:58:32.590Z,9.93
2017-09-29T17:01:06.555Z,12.10
2017-09-29T17:03:41.201Z,8.82
2017-09-29T17:06:15.127Z,10.95
2017-09-29T17:08:48.943Z,10.73
2017-09-29T17:11:22.818Z,10.43
2017-09-29T17:13:56.965Z,12.60
2017-09-29T17:16:30.969Z,11.82
2017-09-29T17:19:05.388Z,12.02
2017-09-29T17:21:39.476Z,13.32
2017-09-29T17:24:14.173Z,11.02
2017-09-29T17:26:48.191Z,10.57
2017-09-29T17:29:22.287Z,13.30
2017-09-29T17:31:56.311Z,12.85
2017-09-29T17:34:31.096Z,13.57
2017-09-29T17:37:05.308Z,11.70
2017-09-29T17:39:40.274Z,12.27
2017-09-29T17:42:14.360Z,14.73
2017-09-29T17:44:49.112Z,16.00
2017-09-29T17:47:22.976Z,17.27
2017-09-29T17:49:57.155Z,16.65
2017-09-29T17:52:31.256Z,14.75
2017-09-29T17:55:06.131Z,13.62
2017-09-29T17:57:40.322Z,13.68
2017-09-29T18:00:14.342Z,17.55
2017-09-29T18:02:48.474Z,27.27
2017-09-29T18:05:22.522Z,51.60
2017-09-29T18:07:56.376Z,61.17
2017-09-29T18:10:30.474Z,45.63
2017-09-29T18:13:04.680Z,29.33
2017-09-29T18:15:38.647Z,31.15
2017-09-29T18:18:13.721Z,22.10
2017-09-29T18:20:48.728Z,19.98
2017-09-29T18:23:22.630Z,21.45
2017-09-29T18:25:56.715Z,18.50
2017-09-29T18:28:31.629Z,20.73
2017-09-29T18:31:05.290Z,17.58
2017-09-29T18:33:39.975Z,17.08
2017-09-29T18:36:13.874Z,17.75
2017-09-29T18:38:48.436Z,16.60
2017-09-29T18:41:25.768Z,18.73
2017-09-29T18:47:16.559Z,16.42
2017-09-29T18:49:50.379Z,18.10
2017-09-29T18:52:24.356Z,17.15
2017-09-29T18:54:58.133Z,19.23
2017-09-29T18:57:32.250Z,15.00
2017-09-29T19:00:06.219Z,14.65
2017-09-29T19:02:40.060Z,15.70
2017-09-29T19:05:14.824Z,15.25
2017-09-29T19:07:48.584Z,14.25
2017-09-29T19:10:22.455Z,14.00
2017-09-29T19:12:56.488Z,16.25
2017-09-29T19:15:30.465Z,14.73
2017-09-29T19:18:04.218Z,19.27
2017-09-29T19:20:39.133Z,14.70
2017-09-29T19:23:12.986Z,14.55
2017-09-29T19:25:46.889Z,15.65
2017-09-29T19:28:20.739Z,15.70
2017-09-29T19:30:54.591Z,14.45
2017-09-29T19:33:29.047Z,16.12
2017-09-29T19:36:03.176Z,18.30
2017-09-29T19:38:37.851Z,15.73
2017-09-29T19:41:11.856Z,16.50
2017-09-29T19:43:45.884Z,14.07
2017-09-29T19:46:19.825Z,14.02
2017-09-29T19:48:53.942Z,14.52
2017-09-29T19:51:28.443Z,15.27
2017-09-29T19:54:03.507Z,11.68
2017-09-29T19:56:39.076Z,14.45
2017-09-29T19:59:13.295Z,13.15
2017-09-29T20:01:47.310Z,15.80
2017-09-29T20:04:21.417Z,13.85
2017-09-29T20:06:55.618Z,15.70
2017-09-29T20:09:29.714Z,15.57
2017-09-29T20:12:03.793Z,18.80
2017-09-29T20:14:39.245Z,14.75
2017-09-29T20:17:13.385Z,14.43
2017-09-29T20:19:47.358Z,16.62
2017-09-29T20:22:22.185Z,14.50
2017-09-29T20:24:56.579Z,14.77
2017-09-29T20:27:30.495Z,15.95
2017-09-29T20:30:04.342Z,15.25
2017-09-29T20:32:39.085Z,12.75
2017-09-29T20:35:13.810Z,13.75
2017-09-29T20:37:47.871Z,15.68
2017-09-29T20:40:21.846Z,14.48
2017-09-29T20:42:55.693Z,14.20
2017-09-29T20:45:29.886Z,15.50
2017-09-29T20:48:03.898Z,12.40
2017-09-29T20:50:37.908Z,12.15
2017-09-29T20:53:12.026Z,12.75
2017-09-29T20:55:46.077Z,12.10
2017-09-29T20:58:19.967Z,15.48
2017-09-29T21:00:53.753Z,12.05
2017-09-29T21:03:27.628Z,12.82
2017-09-29T21:06:01.433Z,10.90
2017-09-29T21:08:35.242Z,12.77
2017-09-29T21:11:09.862Z,12.18
2017-09-29T21:13:44.414Z,12.43
2017-09-29T21:16:18.365Z,10.93
2017-09-29T21:18:52.912Z,11.00
2017-09-29T21:21:27.422Z,10.52
2017-09-29T21:24:01.265Z,11.00
2017-09-29T21:26:34.920Z,10.38
2017-09-29T21:29:08.880Z,12.10
2017-09-29T21:31:42.586Z,11.23
2017-09-29T21:34:17.339Z,12.77
2017-09-29T21:36:51.244Z,13.48
2017-09-29T21:39:25.153Z,12.23
2017-09-29T21:41:59.099Z,11.65
2017-09-29T21:44:33.795Z,12.57
2017-09-29T21:47:08.565Z,12.57
2017-09-29T21:49:42.312Z,15.13
2017-09-29T21:52:16.194Z,25.00
2017-09-29T21:54:50.178Z,13.27
2017-09-29T21:57:23.999Z,13.52
2017-09-29T21:59:58.595Z,13.85
2017-09-29T22:02:32.435Z,14.73
2017-09-29T22:05:06.286Z,11.68
2017-09-29T22:07:40.107Z,12.73
2017-09-29T22:10:13.959Z,12.13
2017-09-29T22:12:47.939Z,12.85
2017-09-29T22:15:21.868Z,12.45
2017-09-29T22:17:55.717Z,12.70
2017-09-29T22:20:31.354Z,14.05
2017-09-29T22:23:05.197Z,16.08
2017-09-29T22:25:39.195Z,12.30
2017-09-29T22:28:13.828Z,13.95
2017-09-29T22:30:47.768Z,12.88
2017-09-29T22:33:21.578Z,12.43
2017-09-29T22:35:56.197Z,12.68
2017-09-29T22:38:30.049Z,14.70
2017-09-29T22:41:03.845Z,13.23
2017-09-29T22:43:37.790Z,13.25
2017-09-29T22:46:11.553Z,10.68
2017-09-29T22:48:45.311Z,12.73
2017-09-29T22:51:20.099Z,12.98
2017-09-29T22:53:54.226Z,13.25
2017-09-29T22:56:28.828Z,10.00
2017-09-29T22:59:02.729Z,11.82
2017-09-29T23:01:36.603Z,11.45
2017-09-29T23:04:10.609Z,10.88
2017-09-29T23:06:44.538Z,10.98
2017-09-29T23:09:18.267Z,11.32
2017-09-29T23:11:52.870Z,13.23
2017-09-29T23:14:26.850Z,12.60
2017-09-29T23:17:00.693Z,12.20
2017-09-29T23:19:34.610Z,12.93
2017-09-29T23:22:09.198Z,13.40
2017-09-29T23:24:43.082Z,12.00
2017-09-29T23:27:16.926Z,10.98
2017-09-29T23:29:50.713Z,14.57
2017-09-29T23:32:24.541Z,11.27
2017-09-29T23:34:58.376Z,11.95
2017-09-29T23:37:32.959Z,9.82
2017-09-29T23:40:07.641Z,12.30
2017-09-29T23:42:41.469Z,13.45
2017-09-29T23:45:16.045Z,9.38
2017-09-29T23:47:49.884Z,13.60
2017-09-29T23:50:23.724Z,12.18
2017-09-29T23:52:57.687Z,9.85
2017-09-29T23:55:32.216Z,10.73
2017-09-29T23:58:06.913Z,11.65
